Rocky Branch, Texas
Current Conditions -  °F | °C
As of 8:15 AM on Monday 24 Nov 2014 (Local Time) from KOSA Reporting Station
Clear Clear  
Wind Chill: 43°   Ceiling: Unl
Heat Index: 47°   Visibility: 10mi
Dew Point: 36°   Wind: 8mph
Humidity: 66%   Direction: 280°W
Pressure: 30"   Gusts: NA
Location:  33.2006°N, 94.6977°W
Report Text: KOSA 241415Z AUTO 28007KT 10SM CLR 08/02 A3000 RMK AO1 T00820022
Loading
Personal Weather Stations






























Interactive Weather Map New forecast layout! Learn more

10-Day Weather Forecast

Advertisements
Track Severe Weather on mobile